Terminal Aerodrome Forecast
Issued by NWS

Home | Current Version | Previous Version | Text Only | Print | Product List | Glossary On
Versions: 1 2 3 4 5 6 7 8 9 10 11 12
000
FTUS45 KABQ 282300
TAFGUP
TAF
KGUP 282322Z 2900/2924 26012G22KT P6SM SKC
     FM290200 23008KT P6SM SKC
     FM290500 00000KT P6SM SKC
     FM291900 25011KT P6SM BKN250=

USA.gov is the U.S. government's official web portal to all federal, state and local government web resources and services.